Terminal Aerodrome Forecast
Issued by NWS Wichita, KS

Home | Current Version | Previous Version | Graphics & Text | Print | Product List | Glossary On
Versions: 1 2 3 4 5 6 7 8 9 10 11 12 13 14 15 16 17 18 19 20
705
FTUS43 KICT 242329
TAFICT
TAF
KICT 242329Z 2500/2524 VRB03KT P6SM SCT120
     FM250200 VRB03KT P6SM BKN150
     FM251400 VRB03KT P6SM BKN120=

USA.gov is the U.S. government's official web portal to all federal, state and local government web resources and services.